Victory City, Texas
Current Conditions -  °F | °C
As of 12:53 PM on Thursday 30 Oct 2014 (Local Time) from KTXK Reporting Station
Clear Clear  
Wind Chill: 21°   Ceiling: Unl
Heat Index: 21°   Visibility: 10mi
Dew Point:   Wind: 9mph
Humidity: 35%   Direction: 210°SSW
Pressure: 30.15"   Gusts: NA
Location:  33.474°N, 94.2882°W
Report Text: KTXK 301753Z 21008KT 10SM CLR 21/05 A3015 RMK AO2 SLP206 T02110050 10217 20067 58012
Loading
Personal Weather Stations






























Interactive Weather Map
Tropical Storm Tracking
New forecast layout! Learn more

10-Day Weather Forecast

Advertisements
Track Severe Weather on mobile